| time (UTC) | temp C | wind direction | speed KPH | gust KPH | rain 1hr cm | rain 24hr cm | rain mn cm | humidity % | barometer mb |
| 20260509012016 | 14 | 145 | 0.0 | 0.0 | 0.00 | 0.00 | 0.00 | 90 | 965.1 |
| 20260509011519 | 14 | 145 | 0.0 | 0.0 | 0.00 | 0.00 | 0.00 | 89 | 965.2 |
| 20260509011005 | 14 | 0.0 | 0.0 | 0.00 | 0.00 | 0.00 | 89 | 965.0 | |
| 20260509010116 | 14 | 0.0 | 0.0 | 0.00 | 0.00 | 0.00 | 89 | 964.8 | |
| 20260509005515 | 14 | 145 | 0.0 | 0.0 | 0.00 | 0.00 | 0.00 | 88 | 965.1 |
| 20260509004558 | 15 | 0.0 | 0.0 | 0.00 | 0.00 | 0.00 | 88 | 964.8 | |
| 20260509004015 | 15 | 145 | 0.0 | 0.0 | 0.00 | 0.00 | 0.00 | 88 | 964.9 |
| 20260509003516 | 15 | 145 | 0.0 | 0.0 | 0.00 | 0.00 | 0.00 | 87 | 965.1 |
| 20260509002523 | 15 | 0.0 | 0.0 | 0.00 | 0.00 | 0.00 | 86 | 964.9 | |
| 20260509002016 | 15 | 145 | 0.0 | 0.0 | 0.00 | 0.00 | 0.00 | 86 | 965.1 |
| 20260509001604 | 15 | 0.0 | 0.0 | 0.00 | 0.00 | 0.00 | 85 | 965.2 | |
| 20260509000516 | 15 | 145 | 0.0 | 0.0 | 0.00 | 0.00 | 0.00 | 84 | 965.5 |
| 20260508235516 | 16 | 145 | 0.0 | 0.0 | 0.00 | 0.00 | 0.00 | 83 | 965.6 |
| 20260508235015 | 16 | 145 | 0.0 | 0.0 | 0.00 | 0.00 | 0.00 | 82 | 965.6 |
| 20260508234015 | 16 | 145 | 0.0 | 0.0 | 0.00 | 0.00 | 0.00 | 81 | 965.6 |
| 20260508233033 | 16 | 135 | 0.0 | 1.6 | 0.00 | 0.00 | 0.00 | 81 | 965.3 |
| 20260508232515 | 17 | 145 | 0.0 | 1.6 | 0.00 | 0.00 | 0.00 | 81 | 965.7 |
| 20260508231618 | 17 | 0.0 | 0.0 | 0.00 | 0.00 | 0.00 | 79 | 965.7 | |
| 20260508231140 | 17 | 0.0 | 0.0 | 0.00 | 0.00 | 0.00 | 79 | 965.6 | |
| 20260508230558 | 17 | 0.0 | 0.0 | 0.00 | 0.00 | 0.00 | 79 | 965.7 | |
| 20260508230015 | 17 | 145 | 0.0 | 0.0 | 0.00 | 0.00 | 0.00 | 79 | 965.8 |
| 20260508225622 | 17 | 135 | 0.0 | 1.6 | 0.00 | 0.00 | 0.00 | 78 | 965.7 |
| 20260508225020 | 17 | 145 | 0.0 | 0.0 | 0.00 | 0.00 | 0.00 | 78 | 966.0 |
| 20260508224515 | 17 | 145 | 0.0 | 0.0 | 0.00 | 0.00 | 0.00 | 78 | 966.0 |
| 20260508224056 | 17 | 0.0 | 0.0 | 0.00 | 0.00 | 0.00 | 78 | 965.9 | |
| 20260508223516 | 17 | 145 | 0.0 | 0.0 | 0.00 | 0.00 | 0.00 | 78 | 965.9 |
| 20260508223054 | 17 | 135 | 0.0 | 1.6 | 0.00 | 0.00 | 0.00 | 78 | 965.5 |
| 20260508222515 | 17 | 145 | 0.0 | 0.0 | 0.00 | 0.00 | 0.00 | 78 | 965.6 |
| 20260508222015 | 17 | 145 | 0.0 | 0.0 | 0.00 | 0.00 | 0.00 | 77 | 965.5 |
| 20260508221600 | 18 | 135 | 0.0 | 1.6 | 0.00 | 0.00 | 0.00 | 76 | 965.2 |
| 20260508221054 | 18 | 0.0 | 0.0 | 0.00 | 0.00 | 0.00 | 77 | 965.3 | |
| 20260508220015 | 18 | 145 | 0.0 | 0.0 | 0.00 | 0.00 | 0.00 | 75 | 965.6 |
| 20260508215414 | 18 | 0.0 | 0.0 | 0.00 | 0.00 | 0.00 | 74 | 965.5 | |
| 20260508214015 | 18 | 145 | 0.0 | 1.6 | 0.00 | 0.00 | 0.00 | 71 | 965.5 |
| 20260508213519 | 18 | 0.0 | 0.0 | 0.00 | 0.00 | 0.00 | 72 | 965.5 | |
| 20260508213015 | 18 | 145 | 0.0 | 0.0 | 0.00 | 0.00 | 0.00 | 72 | 965.9 |
| 20260508212015 | 18 | 145 | 0.0 | 0.0 | 0.00 | 0.00 | 0.00 | 72 | 965.9 |
| 20260508211515 | 18 | 145 | 0.0 | 0.0 | 0.00 | 0.00 | 0.00 | 72 | 965.8 |
| 20260508211017 | 18 | 145 | 0.0 | 0.0 | 0.00 | 0.00 | 0.00 | 71 | 965.8 |
| 20260508210515 | 18 | 145 | 0.0 | 0.0 | 0.00 | 0.00 | 0.00 | 70 | 965.8 |
| 20260508210030 | 18 | 0 | 0.0 | 1.6 | 0.00 | 0.00 | 0.00 | 71 | 965.7 |
| 20260508205515 | 18 | 360 | 1.6 | 1.6 | 0.00 | 0.00 | 0.00 | 68 | 965.9 |
| 20260508204515 | 18 | 1 | 0.0 | 0.0 | 0.00 | 0.00 | 0.00 | 70 | 965.9 |
| 20260508203515 | 18 | 321 | 0.0 | 0.0 | 0.00 | 0.00 | 0.00 | 72 | 966.2 |
| 20260508203015 | 18 | 321 | 0.0 | 0.0 | 0.00 | 0.00 | 0.00 | 71 | 966.4 |
| 20260508202515 | 18 | 321 | 0.0 | 0.0 | 0.00 | 0.00 | 0.00 | 69 | 966.1 |
| 20260508202014 | 18 | 293 | 0.0 | 1.6 | 0.00 | 0.00 | 0.00 | 69 | 965.7 |
| 20260508201550 | 19 | 293 | 0.0 | 1.6 | 0.00 | 0.00 | 0.00 | 68 | 966.0 |
| 20260508200904 | 19 | 0 | 0.0 | 1.6 | 0.00 | 0.00 | 0.00 | 69 | 966.3 |
| 20260508200104 | 19 | 23 | 0.0 | 1.6 | 0.00 | 0.00 | 0.00 | 69 | 966.1 |
| 20260508195004 | 20 | 23 | 0.0 | 3.2 | 0.00 | 0.00 | 0.00 | 68 | 966.2 |
| 20260508194015 | 19 | 334 | 0.0 | 0.0 | 0.00 | 0.00 | 0.00 | 69 | 966.4 |
| 20260508193521 | 19 | 338 | 0.0 | 1.6 | 0.00 | 0.00 | 0.00 | 68 | 966.3 |
| 20260508193035 | 18 | 335 | 0.0 | 3.2 | 0.00 | 0.00 | 0.00 | 67 | 966.1 |
| 20260508192510 | 19 | 338 | 3.2 | 6.4 | 0.00 | 0.00 | 0.00 | 63 | 966.1 |
| 20260508192032 | 20 | 135 | 0.0 | 4.8 | 0.00 | 0.00 | 0.00 | 62 | 966.1 |
| 20260508191535 | 20 | 130 | 1.6 | 1.6 | 0.00 | 0.00 | 0.00 | 64 | 966.1 |
| 20260508191015 | 19 | 183 | 0.0 | 3.2 | 0.00 | 0.00 | 0.00 | 65 | 966.5 |
| 20260508190035 | 19 | 168 | 0.0 | 0.0 | 0.00 | 0.00 | 0.00 | 67 | 966.6 |
| 20260508185515 | 19 | 336 | 4.8 | 6.4 | 0.00 | 0.00 | 0.00 | 63 | 966.8 |
| 20260508185052 | 19 | 90 | 1.6 | 4.8 | 0.00 | 0.00 | 0.00 | 65 | 966.9 |
| 20260508184515 | 19 | 94 | 0.0 | 0.0 | 0.00 | 0.00 | 0.00 | 63 | 967.0 |
| 20260508183515 | 19 | 340 | 1.6 | 6.4 | 0.00 | 0.00 | 0.00 | 62 | 967.1 |
| 20260508182608 | 20 | 338 | 0.0 | 3.2 | 0.00 | 0.00 | 0.00 | 65 | 967.2 |
| 20260508181515 | 20 | 336 | 1.6 | 1.6 | 0.00 | 0.00 | 0.00 | 63 | 967.1 |
| 20260508180515 | 20 | 169 | 0.0 | 1.6 | 0.00 | 0.00 | 0.00 | 59 | 967.3 |
| 20260508175535 | 20 | 61 | 1.6 | 4.8 | 0.00 | 0.00 | 0.00 | 61 | 967.4 |
| 20260508174515 | 19 | 336 | 1.6 | 8.0 | 0.00 | 0.00 | 0.00 | 63 | 967.4 |
| 20260508173515 | 19 | 341 | 3.2 | 8.0 | 0.00 | 0.00 | 0.00 | 63 | 967.6 |
| 20260508172515 | 18 | 347 | 1.6 | 6.4 | 0.00 | 0.00 | 0.00 | 66 | 967.9 |
| 20260508171510 | 18 | 0 | 0.0 | 1.6 | 0.00 | 0.00 | 0.00 | 66 | 967.9 |
| 20260508171015 | 18 | 345 | 3.2 | 8.0 | 0.00 | 0.00 | 0.00 | 64 | 968.1 |
| 20260508170015 | 18 | 323 | 1.6 | 3.2 | 0.00 | 0.00 | 0.00 | 61 | 968.2 |
| 20260508165035 | 19 | 143 | 0.0 | 6.4 | 0.00 | 0.00 | 0.00 | 65 | 968.3 |
| 20260508164015 | 18 | 332 | 1.6 | 3.2 | 0.00 | 0.00 | 0.00 | 63 | 968.6 |
| 20260508163035 | 18 | 339 | 1.6 | 6.4 | 0.00 | 0.00 | 0.00 | 65 | 968.5 |
| 20260508162015 | 17 | 347 | 1.6 | 6.4 | 0.00 | 0.00 | 0.00 | 66 | 968.6 |
| 20260508161014 | 17 | 348 | 3.2 | 8.0 | 0.00 | 0.00 | 0.00 | 65 | 968.7 |
| 20260508160015 | 17 | 340 | 1.6 | 6.4 | 0.00 | 0.03 | 0.00 | 67 | 968.9 |
| 20260508155015 | 17 | 7 | 1.6 | 6.4 | 0.00 | 0.03 | 0.00 | 65 | 969.0 |
| 20260508154014 | 17 | 84 | 0.0 | 1.6 | 0.00 | 0.03 | 0.00 | 66 | 969.0 |
| 20260508153514 | 17 | 359 | 3.2 | 4.8 | 0.00 | 0.03 | 0.00 | 66 | 969.4 |
| 20260508152515 | 17 | 333 | 1.6 | 6.4 | 0.00 | 0.03 | 0.00 | 66 | 969.2 |
| 20260508151622 | 17 | 338 | 3.2 | 6.4 | 0.00 | 0.00 | 0.00 | 67 | 969.0 |
| 20260508151014 | 17 | 341 | 3.2 | 8.0 | 0.00 | 0.03 | 0.00 | 66 | 969.2 |
| 20260508150015 | 17 | 347 | 1.6 | 6.4 | 0.00 | 0.15 | 0.00 | 67 | 969.3 |
| 20260508145120 | 17 | 338 | 1.6 | 6.4 | 0.00 | 0.03 | 0.00 | 67 | 969.5 |
| 20260508144535 | 17 | 322 | 3.2 | 8.0 | 0.00 | 0.15 | 0.00 | 67 | 969.2 |
| 20260508143516 | 16 | 335 | 3.2 | 11.3 | 0.00 | 0.15 | 0.00 | 71 | 969.3 |
| 20260508142547 | 16 | 338 | 1.6 | 4.8 | 0.00 | 0.08 | 0.00 | 73 | 969.4 |
| 20260508142014 | 16 | 340 | 0.0 | 1.6 | 0.00 | 0.15 | 0.00 | 74 | 969.6 |
| 20260508141503 | 15 | 315 | 1.6 | 4.8 | 0.00 | 0.10 | 0.00 | 74 | 969.5 |
| 20260508141036 | 15 | 327 | 1.6 | 3.2 | 0.00 | 0.15 | 0.00 | 74 | 969.6 |
| 20260508140513 | 15 | 338 | 1.6 | 3.2 | 0.00 | 0.13 | 0.00 | 73 | 969.6 |
| 20260508140014 | 15 | 0 | 1.6 | 4.8 | 0.00 | 0.13 | 0.00 | 75 | 969.6 |
| 20260508135859 | 15 | 0 | 1.6 | 8.0 | 0.00 | 0.13 | 0.00 | 77 | 969.6 |
| 20260508135036 | 15 | 352 | 0.0 | 0.0 | 0.00 | 0.33 | 0.00 | 78 | 969.7 |
| 20260508134614 | 15 | 0 | 1.6 | 4.8 | 0.00 | 0.15 | 0.00 | 77 | 969.5 |
| 20260508134129 | 15 | 315 | 0.0 | 3.2 | 0.00 | 0.15 | 0.00 | 82 | 969.4 |
| 20260508133514 | 14 | 245 | 1.6 | 3.2 | 0.00 | 0.33 | 0.00 | 82 | 969.4 |
| 20260508133015 | 14 | 336 | 0.0 | 1.6 | 0.00 | 0.33 | 0.00 | 82 | 969.4 |
| 20260508132447 | 13 | 23 | 1.6 | 6.4 | 0.00 | 0.15 | 0.00 | 83 | 969.3 |
| 20260508131516 | 13 | 15 | 1.6 | 3.2 | 0.00 | 0.33 | 0.00 | 83 | 969.6 |
| 20260508131027 | 13 | 270 | 0.0 | 1.6 | 0.00 | 0.18 | 0.00 | 84 | 969.1 |
| 20260508130516 | 13 | 258 | 0.0 | 1.6 | 0.00 | 0.33 | 0.00 | 84 | 969.2 |
| 20260508130016 | 13 | 337 | 0.0 | 0.0 | 0.00 | 0.33 | 0.00 | 86 | 969.1 |
| 20260508125535 | 13 | 329 | 1.6 | 6.4 | 0.00 | 0.56 | 0.00 | 86 | 969.1 |
| 20260508125015 | 13 | 356 | 0.0 | 3.2 | 0.00 | 0.56 | 0.00 | 85 | 969.3 |
| 20260508124535 | 13 | 347 | 1.6 | 3.2 | 0.00 | 0.56 | 0.00 | 87 | 969.2 |
| 20260508123909 | 13 | 68 | 0.0 | 3.2 | 0.00 | 0.23 | 0.00 | 89 | 968.9 |
| 20260508123023 | 12 | 23 | 0.0 | 1.6 | 0.00 | 0.25 | 0.00 | 91 | 969.1 |
| 20260508122520 | 12 | 23 | 0.0 | 3.2 | 0.00 | 0.28 | 0.00 | 92 | 968.7 |
| 20260508121619 | 12 | 158 | 0.0 | 1.6 | 0.00 | 0.33 | 0.00 | 95 | 968.7 |
| 20260508121016 | 12 | 155 | 0.0 | 0.0 | 0.00 | 0.56 | 0.00 | 95 | 968.8 |
| 20260508120516 | 12 | 155 | 0.0 | 0.0 | 0.00 | 0.56 | 0.00 | 95 | 969.0 |
| 20260508120017 | 12 | 155 | 0.0 | 0.0 | 0.00 | 0.56 | 0.00 | 96 | 968.8 |
| 20260508115514 | 11 | 155 | 0.0 | 0.0 | 0.00 | 0.91 | 0.00 | 96 | 968.7 |
| 20260508115037 | 11 | 155 | 0.0 | 0.0 | 0.00 | 0.91 | 0.00 | 96 | 968.6 |
| 20260508114515 | 11 | 155 | 0.0 | 0.0 | 0.00 | 0.91 | 0.00 | 96 | 968.6 |
| 20260508114015 | 11 | 155 | 0.0 | 0.0 | 0.00 | 0.91 | 0.00 | 96 | 968.5 |
| 20260508113536 | 11 | 155 | 0.0 | 0.0 | 0.00 | 0.91 | 0.00 | 96 | 968.3 |
| 20260508113015 | 11 | 155 | 0.0 | 0.0 | 0.00 | 0.91 | 0.00 | 96 | 968.3 |
| 20260508112016 | 10 | 156 | 0.0 | 0.0 | 0.00 | 0.91 | 0.00 | 96 | 968.3 |
| 20260508111333 | 10 | 0.0 | 0.0 | 0.00 | 0.58 | 0.00 | 96 | 967.9 | |
| 20260508110516 | 10 | 156 | 0.0 | 0.0 | 0.00 | 0.91 | 0.00 | 96 | 968.1 |
| 20260508110016 | 10 | 156 | 0.0 | 0.0 | 0.00 | 1.17 | 0.00 | 96 | 968.1 |
| 20260508105539 | 10 | 156 | 0.0 | 0.0 | 0.00 | 1.17 | 0.00 | 96 | 968.0 |
| 20260508104849 | 10 | 0.0 | 0.0 | 0.00 | 0.69 | 0.00 | 96 | 967.4 | |
| 20260508104016 | 11 | 156 | 0.0 | 0.0 | 0.00 | 1.17 | 0.00 | 96 | 967.7 |
| 20260508103516 | 10 | 156 | 0.0 | 0.0 | 0.00 | 1.17 | 0.00 | 96 | 967.7 |
| 20260508103021 | 10 | 156 | 0.0 | 0.0 | 0.00 | 1.17 | 0.00 | 96 | 967.6 |
| 20260508102511 | 11 | 0.0 | 0.0 | 0.00 | 0.76 | 0.00 | 96 | 967.2 | |
| 20260508102016 | 11 | 156 | 0.0 | 0.0 | 0.00 | 1.17 | 0.00 | 96 | 967.2 |
| 20260508101535 | 11 | 0.0 | 0.0 | 0.00 | 0.76 | 0.00 | 96 | 967.0 | |
| 20260508101016 | 11 | 156 | 0.0 | 0.0 | 0.00 | 1.17 | 0.00 | 96 | 967.0 |
| 20260508100536 | 11 | 156 | 0.0 | 0.0 | 0.00 | 1.17 | 0.00 | 96 | 966.9 |
| 20260508095747 | 11 | 0.0 | 0.0 | 0.00 | 0.76 | 0.00 | 96 | 966.8 | |
| 20260508095016 | 11 | 156 | 0.0 | 0.0 | 0.00 | 1.40 | 0.00 | 96 | 966.7 |
| 20260508094529 | 11 | 0.0 | 0.0 | 0.00 | 0.79 | 0.00 | 96 | 966.5 | |
| 20260508094016 | 11 | 156 | 0.0 | 0.0 | 0.00 | 1.40 | 0.00 | 96 | 966.7 |
| 20260508093637 | 11 | 0.0 | 0.0 | 0.00 | 0.81 | 0.00 | 96 | 966.1 | |
| 20260508093024 | 11 | 0.0 | 0.0 | 0.00 | 0.84 | 0.00 | 96 | 966.1 | |
| 20260508092553 | 11 | 0.0 | 0.0 | 0.00 | 0.86 | 0.00 | 96 | 966.2 | |
| 20260508092016 | 11 | 156 | 0.0 | 0.0 | 0.00 | 1.40 | 0.00 | 95 | 966.3 |
| 20260508091537 | 11 | 0.0 | 0.0 | 0.00 | 0.91 | 0.00 | 95 | 966.4 | |
| 20260508091151 | 11 | 0.0 | 0.0 | 0.00 | 0.91 | 0.00 | 95 | 966.2 | |
| 20260508090509 | 11 | 0.0 | 0.0 | 0.00 | 0.91 | 0.00 | 95 | 966.3 | |
| 20260508090016 | 11 | 156 | 0.0 | 0.0 | 0.00 | 1.40 | 0.00 | 95 | 966.6 |
| 20260508085516 | 11 | 156 | 0.0 | 0.0 | 0.00 | 1.65 | 0.00 | 95 | 966.2 |
| 20260508085016 | 11 | 156 | 0.0 | 0.0 | 0.00 | 1.65 | 0.00 | 95 | 966.1 |
| 20260508084517 | 11 | 0.0 | 0.0 | 0.00 | 0.91 | 0.00 | 95 | 966.0 | |
| 20260508084027 | 11 | 0.0 | 0.0 | 0.00 | 0.94 | 0.00 | 95 | 966.0 | |
| 20260508083516 | 11 | 156 | 0.0 | 0.0 | 0.00 | 1.65 | 0.00 | 95 | 966.1 |
| 20260508083013 | 11 | 0.0 | 0.0 | 0.00 | 0.97 | 0.00 | 95 | 966.0 | |
| 20260508082536 | 11 | 156 | 0.0 | 0.0 | 0.00 | 1.65 | 0.00 | 95 | 966.3 |
| 20260508082036 | 11 | 156 | 0.0 | 0.0 | 0.00 | 1.65 | 0.00 | 95 | 966.3 |
| 20260508081048 | 12 | 0.0 | 0.0 | 0.00 | 1.04 | 0.00 | 95 | 966.2 | |
| 20260508080515 | 12 | 156 | 0.0 | 0.0 | 0.00 | 1.65 | 0.00 | 95 | 966.3 |
| 20260508080015 | 12 | 156 | 0.0 | 0.0 | 0.00 | 1.65 | 0.00 | 95 | 966.3 |
| 20260508075516 | 12 | 156 | 0.0 | 0.0 | 0.00 | 1.93 | 0.00 | 95 | 966.5 |
| 20260508075029 | 12 | 0.0 | 0.0 | 0.00 | 1.14 | 0.00 | 95 | 966.2 | |
| 20260508074516 | 12 | 156 | 0.0 | 0.0 | 0.00 | 1.93 | 0.00 | 95 | 966.4 |
| 20260508074033 | 12 | 0.0 | 0.0 | 0.00 | 1.19 | 0.00 | 95 | 966.3 | |
| 20260508073539 | 12 | 156 | 0.0 | 0.0 | 0.00 | 1.93 | 0.00 | 94 | 966.3 |
| 20260508072515 | 12 | 156 | 0.0 | 0.0 | 0.00 | 1.93 | 0.00 | 94 | 966.2 |
| 20260508072043 | 12 | 0.0 | 0.0 | 0.00 | 1.24 | 0.00 | 94 | 966.0 | |
| 20260508071515 | 12 | 156 | 0.0 | 0.0 | 0.00 | 1.93 | 0.00 | 94 | 966.2 |
| 20260508070015 | 12 | 156 | 0.0 | 0.0 | 0.00 | 1.93 | 0.00 | 94 | 966.4 |
| 20260508065016 | 12 | 156 | 0.0 | 0.0 | 0.00 | 1.96 | 0.00 | 94 | 966.2 |
| 20260508064008 | 12 | 0.0 | 0.0 | 0.00 | 1.30 | 0.00 | 94 | 966.2 | |
| 20260508063515 | 12 | 0.0 | 0.0 | 0.00 | 1.30 | 0.00 | 94 | 966.2 | |
| 20260508062611 | 12 | 0.0 | 0.0 | 0.00 | 1.30 | 0.00 | 94 | 966.5 | |
| 20260508062031 | 12 | 0.0 | 0.0 | 0.00 | 1.30 | 0.00 | 94 | 966.4 | |
| 20260508061016 | 12 | 156 | 0.0 | 0.0 | 0.00 | 1.96 | 0.00 | 94 | 966.7 |
| 20260508060516 | 12 | 156 | 0.0 | 0.0 | 0.00 | 1.96 | 0.00 | 94 | 966.8 |
| 20260508055556 | 12 | 156 | 0.0 | 0.0 | 0.00 | 2.18 | 0.00 | 94 | 967.0 |
| 20260508055016 | 12 | 156 | 0.0 | 0.0 | 0.00 | 2.18 | 0.00 | 94 | 967.0 |
| 20260508054115 | 12 | 0.0 | 0.0 | 0.00 | 1.30 | 0.00 | 94 | 966.6 | |
| 20260508053518 | 13 | 156 | 0.0 | 0.0 | 0.00 | 2.18 | 0.00 | 94 | 967.1 |
| 20260508053016 | 13 | 156 | 0.0 | 0.0 | 0.00 | 2.18 | 0.00 | 94 | 967.0 |
| 20260508052516 | 12 | 156 | 0.0 | 0.0 | 0.00 | 2.18 | 0.00 | 94 | 966.8 |
| 20260508051515 | 12 | 156 | 0.0 | 0.0 | 0.00 | 2.18 | 0.00 | 94 | 967.0 |
| 20260508050529 | 12 | 0.0 | 0.0 | 0.00 | 1.42 | 0.00 | 94 | 966.8 | |
| 20260508050045 | 13 | 0.0 | 0.0 | 0.00 | 1.45 | 0.00 | 94 | 966.8 | |
| 20260508045056 | 13 | 156 | 0.0 | 0.0 | 0.00 | 2.84 | 2.18 | 93 | 967.1 |
| 20260508044015 | 13 | 156 | 0.0 | 0.0 | 0.00 | 2.84 | 2.18 | 93 | 966.8 |
| 20260508043613 | 13 | 0.0 | 0.0 | 0.00 | 1.63 | 1.50 | 93 | 966.8 | |
| 20260508043016 | 13 | 156 | 0.0 | 0.0 | 0.00 | 2.84 | 2.18 | 93 | 967.0 |
| 20260508042035 | 13 | 156 | 0.0 | 0.0 | 0.00 | 2.84 | 2.18 | 93 | 967.1 |
| 20260508041349 | 13 | 0.0 | 0.0 | 0.00 | 1.93 | 1.50 | 92 | 967.0 | |
| 20260508040610 | 13 | 0.0 | 0.0 | 0.00 | 1.93 | 1.50 | 92 | 966.8 | |
| 20260508040017 | 13 | 0.0 | 0.0 | 0.00 | 2.01 | 1.50 | 92 | 966.7 | |
| 20260508035016 | 13 | 156 | 0.0 | 0.0 | 0.00 | 3.48 | 2.18 | 92 | 967.0 |
| 20260508034013 | 13 | 0.0 | 0.0 | 0.00 | 2.24 | 1.50 | 91 | 966.7 | |
| 20260508033621 | 13 | 0.0 | 0.0 | 0.00 | 2.34 | 1.50 | 91 | 966.7 | |
| 20260508033014 | 13 | 0.0 | 0.0 | 0.00 | 2.34 | 1.50 | 90 | 966.7 | |
| 20260508032503 | 14 | 0.0 | 0.0 | 0.00 | 2.34 | 1.50 | 90 | 966.9 | |
| 20260508032031 | 14 | 0.0 | 0.0 | 0.00 | 2.36 | 1.50 | 90 | 966.9 | |
| 20260508031556 | 14 | 156 | 0.0 | 0.0 | 0.00 | 3.48 | 2.18 | 90 | 966.9 |
| 20260508030515 | 15 | 156 | 0.0 | 0.0 | 0.00 | 3.48 | 2.18 | 91 | 966.9 |
| 20260508030016 | 15 | 156 | 0.0 | 0.0 | 0.00 | 4.01 | 2.18 | 89 | 966.9 |
| 20260508025016 | 15 | 156 | 0.0 | 0.0 | 0.00 | 4.01 | 2.18 | 89 | 966.7 |
| 20260508024542 | 15 | 0.0 | 0.0 | 0.00 | 2.41 | 1.50 | 89 | 966.5 | |
| 20260508023516 | 15 | 156 | 0.0 | 0.0 | 0.00 | 4.01 | 2.18 | 88 | 966.7 |
| 20260508023047 | 15 | 0.0 | 0.0 | 0.00 | 2.41 | 1.50 | 88 | 966.7 | |
| 20260508022519 | 15 | 156 | 0.0 | 0.0 | 0.00 | 4.01 | 2.18 | 88 | 966.6 |
| 20260508022015 | 15 | 156 | 0.0 | 0.0 | 0.00 | 4.01 | 2.18 | 88 | 966.6 |
| 20260508021036 | 15 | 156 | 0.0 | 0.0 | 0.00 | 4.01 | 2.18 | 88 | 966.8 |
| 20260508020037 | 16 | 0.0 | 0.0 | 0.00 | 2.72 | 1.50 | 87 | 966.2 | |
| 20260508015625 | 16 | 0.0 | 0.0 | 0.00 | 2.77 | 1.50 | 87 | 966.1 | |
| 20260508015125 | 16 | 0.0 | 0.0 | 0.00 | 2.79 | 1.50 | 87 | 966.2 | |
| 20260508014617 | 16 | 158 | 0.0 | 1.6 | 0.00 | 2.79 | 1.50 | 87 | 966.1 |
| 20260508014030 | 16 | 0.0 | 0.0 | 0.00 | 2.79 | 1.50 | 86 | 966.1 | |
| 20260508013555 | 16 | 156 | 0.0 | 0.0 | 0.00 | 4.11 | 2.18 | 86 | 966.2 |
| 20260508013045 | 16 | 0.0 | 0.0 | 0.00 | 2.79 | 1.50 | 86 | 966.0 | |
| 20260508012517 | 16 | 156 | 0.0 | 0.0 | 0.00 | 4.11 | 2.18 | 86 | 966.3 |